createdAt,value
2017-12-05T00:02:01.704Z,23.77
2017-12-05T00:04:29.842Z,23.77
2017-12-05T00:06:57.279Z,22.80
2017-12-05T00:09:24.779Z,25.03
2017-12-05T00:11:52.234Z,21.40
2017-12-05T00:14:19.684Z,20.73
2017-12-05T00:16:47.148Z,18.93
2017-12-05T00:19:14.600Z,20.97
2017-12-05T00:21:42.081Z,25.37
2017-12-05T00:24:09.537Z,22.23
2017-12-05T00:26:37.122Z,21.00
2017-12-05T00:29:04.548Z,21.90
2017-12-05T00:31:32.020Z,29.07
2017-12-05T00:33:59.603Z,23.73
2017-12-05T00:36:27.061Z,28.03
2017-12-05T00:38:54.543Z,24.00
2017-12-05T00:41:22.080Z,26.60
2017-12-05T00:43:49.507Z,29.63
2017-12-05T00:46:16.964Z,25.27
2017-12-05T00:48:44.807Z,24.30
2017-12-05T00:51:12.251Z,23.27
2017-12-05T00:53:39.694Z,26.07
2017-12-05T00:56:07.150Z,22.60
2017-12-05T00:58:34.622Z,23.37
2017-12-05T01:01:02.087Z,23.53
2017-12-05T01:03:29.553Z,32.37
2017-12-05T01:05:57.021Z,25.43
2017-12-05T01:08:24.448Z,31.80
2017-12-05T01:10:51.912Z,31.30
2017-12-05T01:13:19.376Z,26.10
2017-12-05T01:15:46.834Z,24.57
2017-12-05T01:18:14.275Z,33.47
2017-12-05T01:20:41.758Z,28.03
2017-12-05T01:23:09.195Z,24.70
2017-12-05T01:25:37.101Z,27.77
2017-12-05T01:28:04.569Z,25.67
2017-12-05T01:30:31.995Z,25.40
2017-12-05T01:32:59.433Z,29.43
2017-12-05T01:35:27.280Z,29.80
2017-12-05T01:37:54.725Z,25.27
2017-12-05T01:40:22.200Z,26.23
2017-12-05T01:42:49.658Z,28.33
2017-12-05T01:45:17.108Z,28.47
2017-12-05T01:47:44.572Z,23.93
2017-12-05T01:50:12.024Z,26.87
2017-12-05T01:52:39.471Z,23.53
2017-12-05T01:55:07.007Z,27.00
2017-12-05T01:57:34.832Z,24.40
2017-12-05T02:00:02.299Z,30.37
2017-12-05T02:02:29.759Z,26.83
2017-12-05T02:04:58.397Z,23.70
2017-12-05T02:07:26.265Z,28.47
2017-12-05T02:09:54.118Z,24.97
2017-12-05T02:12:21.598Z,26.33
2017-12-05T02:14:49.442Z,24.37
2017-12-05T02:17:16.901Z,23.70
2017-12-05T02:19:44.357Z,24.60
2017-12-05T02:22:11.814Z,24.90
2017-12-05T02:24:39.401Z,26.20
2017-12-05T02:27:06.818Z,28.63
2017-12-05T02:29:34.316Z,26.30
2017-12-05T02:32:01.759Z,28.57
2017-12-05T02:34:29.188Z,24.57
2017-12-05T02:36:56.642Z,22.93
2017-12-05T02:39:24.076Z,27.60
2017-12-05T02:41:51.595Z,23.07
2017-12-05T02:44:19.066Z,25.03
2017-12-05T02:46:46.502Z,25.63
2017-12-05T02:49:13.929Z,25.43
2017-12-05T02:51:41.775Z,26.03
2017-12-05T02:54:09.300Z,24.90
2017-12-05T02:56:36.897Z,30.90
2017-12-05T02:59:04.325Z,28.97
2017-12-05T03:01:31.760Z,24.97
2017-12-05T03:03:59.229Z,24.63
2017-12-05T03:06:26.716Z,25.93
2017-12-05T03:08:54.180Z,26.97
2017-12-05T03:11:21.799Z,28.93
2017-12-05T03:13:49.259Z,29.53
2017-12-05T03:16:16.833Z,29.07
2017-12-05T03:18:44.211Z,24.90
2017-12-05T03:21:11.724Z,29.17
2017-12-05T03:23:39.294Z,28.77
2017-12-05T03:26:06.741Z,24.97
2017-12-05T03:28:34.228Z,26.53
2017-12-05T03:31:01.692Z,37.37
2017-12-05T03:33:29.154Z,30.03
2017-12-05T03:35:57.120Z,25.90
2017-12-05T03:38:24.654Z,28.47
2017-12-05T03:40:52.127Z,24.33
2017-12-05T03:43:19.586Z,23.73
2017-12-05T03:45:47.034Z,26.77
2017-12-05T03:48:14.506Z,26.17
2017-12-05T03:50:41.944Z,21.20
2017-12-05T03:53:09.429Z,24.20
2017-12-05T03:55:36.850Z,26.33
2017-12-05T03:58:04.367Z,23.03
2017-12-05T04:00:31.905Z,22.93
2017-12-05T04:02:59.333Z,30.67
2017-12-05T04:05:26.814Z,26.10
2017-12-05T04:07:55.580Z,33.00
2017-12-05T04:10:23.077Z,28.87
2017-12-05T04:12:51.298Z,26.87
2017-12-05T04:15:18.765Z,26.83
2017-12-05T04:17:46.330Z,28.27
2017-12-05T04:20:13.767Z,31.80
2017-12-05T04:22:41.227Z,31.83
2017-12-05T04:25:08.680Z,32.20
2017-12-05T04:27:36.131Z,29.30
2017-12-05T04:30:03.574Z,28.57
2017-12-05T04:32:31.046Z,31.20
2017-12-05T04:34:58.530Z,27.50
2017-12-05T04:37:26.056Z,32.23
2017-12-05T04:39:53.863Z,29.77
2017-12-05T04:42:21.296Z,29.17
2017-12-05T04:44:48.771Z,31.53
2017-12-05T04:47:16.228Z,27.70
2017-12-05T04:49:43.678Z,33.73
2017-12-05T04:52:11.176Z,35.73
2017-12-05T04:54:38.648Z,26.60
2017-12-05T04:57:06.269Z,28.97
2017-12-05T04:59:33.700Z,28.47
2017-12-05T05:02:01.559Z,28.43
2017-12-05T05:04:28.987Z,28.77
2017-12-05T05:06:56.474Z,30.40
2017-12-05T05:09:23.921Z,29.87
2017-12-05T05:11:51.387Z,23.70
2017-12-05T05:14:18.847Z,31.00
2017-12-05T05:16:46.307Z,25.13
2017-12-05T05:19:13.743Z,24.83
2017-12-05T05:21:41.217Z,28.33
2017-12-05T05:24:08.670Z,27.33
2017-12-05T05:26:36.980Z,29.47
2017-12-05T05:29:04.426Z,26.47
2017-12-05T05:31:31.858Z,22.80
2017-12-05T05:33:59.315Z,24.23
2017-12-05T05:36:26.772Z,23.93
2017-12-05T05:38:54.263Z,26.80
2017-12-05T05:41:21.713Z,23.80
2017-12-05T05:43:49.148Z,25.63
2017-12-05T05:46:16.623Z,28.20
2017-12-05T05:48:44.059Z,27.80
2017-12-05T05:51:11.896Z,26.53
2017-12-05T05:53:39.488Z,22.70
2017-12-05T05:56:06.928Z,28.17
2017-12-05T05:58:34.374Z,26.47
2017-12-05T06:01:01.830Z,24.40
2017-12-05T06:03:29.288Z,22.07
2017-12-05T06:05:56.760Z,23.17
2017-12-05T06:08:25.071Z,27.73
2017-12-05T06:10:52.927Z,28.67
2017-12-05T06:13:20.375Z,26.87
2017-12-05T06:15:47.888Z,22.83
2017-12-05T06:18:15.360Z,22.27
2017-12-05T06:20:43.182Z,25.33
2017-12-05T06:23:10.786Z,28.70
2017-12-05T06:25:38.647Z,28.17
2017-12-05T06:28:06.593Z,22.10
2017-12-05T06:30:34.026Z,25.40
2017-12-05T06:33:01.489Z,20.90
2017-12-05T06:35:28.915Z,22.13
2017-12-05T06:37:56.360Z,22.30
2017-12-05T06:40:24.243Z,21.23
2017-12-05T06:42:52.074Z,19.37
2017-12-05T06:45:19.525Z,19.10
2017-12-05T06:47:46.978Z,20.90
2017-12-05T06:50:14.443Z,21.07
2017-12-05T06:52:41.867Z,21.03
2017-12-05T06:55:09.330Z,18.70
2017-12-05T06:57:37.238Z,20.10
2017-12-05T07:00:04.719Z,17.50
2017-12-05T07:02:32.256Z,15.47
2017-12-05T07:04:59.756Z,19.17
2017-12-05T07:07:27.582Z,14.47
2017-12-05T07:09:55.078Z,13.83
2017-12-05T07:12:22.528Z,17.70
2017-12-05T07:14:50.198Z,15.97
2017-12-05T07:17:17.659Z,15.17
2017-12-05T07:19:45.092Z,16.23
2017-12-05T07:22:12.578Z,14.23
2017-12-05T07:24:40.022Z,20.27
2017-12-05T07:27:07.467Z,19.00
2017-12-05T07:29:34.946Z,13.53
2017-12-05T07:32:02.409Z,15.00
2017-12-05T07:34:29.864Z,14.17
2017-12-05T07:36:57.322Z,15.77
2017-12-05T07:39:24.754Z,16.80
2017-12-05T07:41:52.665Z,13.90
2017-12-05T07:44:20.132Z,15.90
2017-12-05T07:46:47.561Z,18.23
2017-12-05T07:49:15.051Z,16.23
2017-12-05T07:51:42.504Z,13.70
2017-12-05T07:54:10.214Z,12.50
2017-12-05T07:56:37.652Z,21.80
2017-12-05T07:59:05.095Z,13.60
2017-12-05T08:01:32.582Z,17.37
2017-12-05T08:04:00.031Z,13.80
2017-12-05T08:06:27.460Z,16.07
2017-12-05T08:08:54.930Z,15.60
2017-12-05T08:11:22.405Z,14.17
2017-12-05T08:13:49.909Z,14.13
2017-12-05T08:16:17.403Z,17.50
2017-12-05T08:18:45.211Z,12.07
2017-12-05T08:21:12.657Z,14.87
2017-12-05T08:23:40.138Z,16.47
2017-12-05T08:26:07.559Z,15.70
2017-12-05T08:28:34.983Z,13.53
2017-12-05T08:31:02.464Z,19.57
2017-12-05T08:33:29.901Z,15.97
2017-12-05T08:35:57.370Z,13.83
2017-12-05T08:38:24.940Z,14.60
2017-12-05T08:40:52.376Z,17.07
2017-12-05T08:43:19.815Z,13.07
2017-12-05T08:45:47.285Z,15.20
2017-12-05T08:48:14.736Z,15.40
2017-12-05T08:50:42.189Z,17.80
2017-12-05T08:53:09.657Z,14.37
2017-12-05T08:55:37.097Z,16.47
2017-12-05T08:58:04.931Z,13.90
2017-12-05T09:00:32.479Z,13.33
2017-12-05T09:02:59.916Z,19.17
2017-12-05T09:05:27.349Z,17.90
2017-12-05T09:07:55.209Z,14.70
2017-12-05T09:10:22.652Z,14.27
2017-12-05T09:12:50.070Z,16.27
2017-12-05T09:15:17.560Z,11.80
2017-12-05T09:17:45.004Z,10.00
2017-12-05T09:20:12.463Z,13.30
2017-12-05T09:22:39.931Z,11.97
2017-12-05T09:25:07.379Z,17.40
2017-12-05T09:27:34.839Z,12.30
2017-12-05T09:30:02.393Z,12.30
2017-12-05T09:32:29.829Z,13.60
2017-12-05T09:34:57.742Z,11.57
2017-12-05T09:37:25.258Z,15.00
2017-12-05T09:39:52.760Z,10.63
2017-12-05T09:42:20.247Z,11.53
2017-12-05T09:44:47.679Z,11.83
2017-12-05T09:47:15.109Z,11.10
2017-12-05T09:49:42.994Z,8.50
2017-12-05T09:52:10.827Z,9.70
2017-12-05T09:54:38.241Z,10.20
2017-12-05T09:57:05.715Z,9.30
2017-12-05T09:59:33.209Z,13.73
2017-12-05T10:02:00.660Z,17.70
2017-12-05T10:04:29.200Z,12.53
2017-12-05T10:06:57.096Z,10.80
2017-12-05T10:09:24.511Z,11.50
2017-12-05T10:11:51.962Z,10.23
2017-12-05T10:14:19.432Z,9.57
2017-12-05T10:16:46.999Z,14.43
2017-12-05T10:19:14.490Z,12.30
2017-12-05T10:21:42.292Z,10.13
2017-12-05T10:24:09.767Z,12.13
2017-12-05T10:26:37.226Z,12.77
2017-12-05T10:29:04.783Z,13.87
2017-12-05T10:31:32.448Z,14.70
2017-12-05T10:33:59.887Z,12.87
2017-12-05T10:36:27.333Z,13.20
2017-12-05T10:38:54.824Z,13.23
2017-12-05T10:41:22.273Z,10.53
2017-12-05T10:43:49.715Z,13.87
2017-12-05T10:46:17.580Z,12.03
2017-12-05T10:48:44.991Z,14.77
2017-12-05T10:51:12.459Z,13.03
2017-12-05T10:53:40.112Z,12.73
2017-12-05T10:56:07.543Z,13.20
2017-12-05T10:58:34.990Z,11.80
2017-12-05T11:01:02.855Z,15.23
2017-12-05T11:03:30.274Z,11.80
2017-12-05T11:05:57.711Z,11.50
2017-12-05T11:08:25.177Z,12.90
2017-12-05T11:10:52.657Z,19.77
2017-12-05T11:13:20.104Z,17.30
2017-12-05T11:15:47.553Z,13.20
2017-12-05T11:18:15.070Z,12.70
2017-12-05T11:20:42.504Z,10.03
2017-12-05T11:23:09.941Z,15.37
2017-12-05T11:25:37.460Z,15.77
2017-12-05T11:28:04.940Z,10.93
2017-12-05T11:30:32.764Z,15.43
2017-12-05T11:33:01.579Z,11.77
2017-12-05T11:35:29.005Z,9.30
2017-12-05T11:37:56.496Z,17.07
2017-12-05T11:40:23.957Z,15.17
2017-12-05T11:42:51.399Z,11.43
2017-12-05T11:45:18.830Z,10.10
2017-12-05T11:47:46.313Z,14.27
2017-12-05T11:50:14.164Z,13.73
2017-12-05T11:52:41.594Z,13.73
2017-12-05T11:55:09.220Z,14.63
2017-12-05T11:57:36.674Z,10.80
2017-12-05T12:00:04.124Z,10.97
2017-12-05T12:02:31.601Z,12.60
2017-12-05T12:04:59.047Z,11.63
2017-12-05T12:07:26.480Z,11.40
2017-12-05T12:09:54.343Z,11.83
2017-12-05T12:12:22.268Z,10.97
2017-12-05T12:14:49.687Z,10.40
2017-12-05T12:17:17.151Z,16.70
2017-12-05T12:19:44.611Z,10.30
2017-12-05T12:22:12.547Z,16.73
2017-12-05T12:24:39.989Z,17.37
2017-12-05T12:27:08.006Z,13.87
2017-12-05T12:29:35.924Z,12.47
2017-12-05T12:32:03.487Z,12.07
2017-12-05T12:34:30.911Z,10.27
2017-12-05T12:36:58.946Z,9.40
2017-12-05T12:39:26.431Z,12.80
2017-12-05T12:41:53.903Z,11.80
2017-12-05T12:44:21.731Z,9.67
2017-12-05T12:46:49.204Z,12.97
2017-12-05T12:49:16.664Z,14.43
2017-12-05T12:51:44.104Z,14.77
2017-12-05T12:54:11.577Z,19.00
2017-12-05T12:56:39.089Z,12.83
2017-12-05T12:59:06.908Z,12.83
2017-12-05T13:01:34.519Z,15.03
2017-12-05T13:04:02.342Z,13.03
2017-12-05T13:06:29.800Z,13.77
2017-12-05T13:08:57.251Z,10.87
2017-12-05T13:11:24.737Z,12.17
2017-12-05T13:13:52.178Z,15.67
2017-12-05T13:16:19.625Z,13.50
2017-12-05T13:18:47.074Z,9.57
2017-12-05T13:21:14.533Z,9.97
2017-12-05T13:23:42.378Z,13.50
2017-12-05T13:26:09.840Z,11.10
2017-12-05T13:28:37.310Z,15.93
2017-12-05T13:31:05.144Z,12.87
2017-12-05T13:33:32.583Z,11.60
2017-12-05T13:36:00.076Z,10.17
2017-12-05T13:38:27.499Z,11.93
2017-12-05T13:40:54.940Z,13.30
2017-12-05T13:43:23.559Z,17.27
2017-12-05T13:45:50.999Z,16.17
2017-12-05T13:48:18.444Z,13.50
2017-12-05T13:50:46.380Z,12.83
2017-12-05T13:53:13.828Z,11.40
2017-12-05T13:55:41.328Z,15.70
2017-12-05T13:58:08.781Z,12.17
2017-12-05T14:00:36.259Z,11.63
2017-12-05T14:03:04.093Z,15.27
2017-12-05T14:05:31.554Z,16.33
2017-12-05T14:07:58.977Z,14.77
2017-12-05T14:10:26.449Z,14.07
2017-12-05T14:12:53.923Z,12.23
2017-12-05T14:15:21.395Z,10.80
2017-12-05T14:17:48.817Z,14.97
2017-12-05T14:20:16.252Z,12.73
2017-12-05T14:22:43.778Z,14.07
2017-12-05T14:25:11.380Z,15.53
2017-12-05T14:27:38.800Z,15.53
2017-12-05T14:30:06.248Z,13.70
2017-12-05T14:32:33.716Z,18.63
2017-12-05T14:35:01.424Z,20.93
2017-12-05T14:37:29.267Z,13.67
2017-12-05T14:39:56.759Z,12.07
2017-12-05T14:42:24.174Z,16.97
2017-12-05T14:44:51.621Z,22.77
2017-12-05T14:47:19.109Z,21.77
2017-12-05T14:49:46.575Z,15.27
2017-12-05T14:52:14.134Z,17.43
2017-12-05T14:54:41.600Z,17.80
2017-12-05T14:57:09.060Z,14.30
2017-12-05T14:59:36.531Z,16.80
2017-12-05T15:02:03.992Z,20.07
2017-12-05T15:04:31.424Z,16.93
2017-12-05T15:06:58.911Z,18.70
2017-12-05T15:09:26.357Z,16.60
2017-12-05T15:11:53.793Z,20.20
2017-12-05T15:14:21.674Z,18.80
2017-12-05T15:16:49.474Z,20.00
2017-12-05T15:19:16.963Z,15.60
2017-12-05T15:21:45.402Z,16.90
2017-12-05T15:24:13.688Z,15.40
2017-12-05T15:26:41.212Z,16.47
2017-12-05T15:29:09.055Z,17.40
2017-12-05T15:31:36.480Z,19.27
2017-12-05T15:34:03.926Z,17.37
2017-12-05T15:36:31.383Z,17.60
2017-12-05T15:38:58.857Z,17.60
2017-12-05T15:41:26.279Z,16.53
2017-12-05T15:43:54.119Z,14.10
2017-12-05T15:46:21.685Z,20.30
2017-12-05T15:48:49.130Z,17.20
2017-12-05T15:51:16.574Z,22.07
2017-12-05T15:53:45.793Z,13.23
2017-12-05T15:56:13.256Z,17.50
2017-12-05T15:58:40.716Z,16.30
2017-12-05T16:01:08.201Z,13.97
2017-12-05T16:03:35.635Z,15.80
2017-12-05T16:06:03.076Z,17.50
2017-12-05T16:08:30.664Z,19.03
2017-12-05T16:10:58.111Z,18.07
2017-12-05T16:13:25.536Z,15.17
2017-12-05T16:15:54.016Z,14.50
2017-12-05T16:18:21.439Z,17.27
2017-12-05T16:20:48.885Z,15.27
2017-12-05T16:23:16.354Z,18.57
2017-12-05T16:25:43.765Z,18.47
2017-12-05T16:28:11.727Z,16.77
2017-12-05T16:30:39.270Z,17.33
2017-12-05T16:33:06.692Z,19.57
2017-12-05T16:35:34.123Z,23.30
2017-12-05T16:38:02.038Z,19.37
2017-12-05T16:40:29.451Z,24.73
2017-12-05T16:42:57.660Z,17.17
2017-12-05T16:45:26.120Z,20.43
2017-12-05T16:47:53.562Z,23.47
2017-12-05T16:50:21.104Z,17.77
2017-12-05T16:52:48.610Z,22.90
2017-12-05T16:55:16.011Z,19.67
2017-12-05T16:57:43.438Z,18.13
2017-12-05T17:00:11.394Z,17.10
2017-12-05T17:02:38.829Z,16.60
2017-12-05T17:05:06.261Z,15.47
2017-12-05T17:07:33.738Z,22.13
2017-12-05T17:10:01.550Z,19.47
2017-12-05T17:12:28.977Z,20.30
2017-12-05T17:14:56.436Z,17.90
2017-12-05T17:17:24.126Z,17.70
2017-12-05T17:19:51.586Z,19.70
2017-12-05T17:22:19.487Z,17.83
2017-12-05T17:24:47.350Z,18.87
2017-12-05T17:27:14.773Z,23.23
2017-12-05T17:29:42.362Z,18.57
2017-12-05T17:32:09.913Z,19.83
2017-12-05T17:34:37.352Z,21.03
2017-12-05T17:37:04.787Z,18.73
2017-12-05T17:39:32.206Z,19.30
2017-12-05T17:42:00.204Z,17.07
2017-12-05T17:44:28.040Z,18.43
2017-12-05T17:46:55.673Z,16.40
2017-12-05T17:49:23.324Z,16.47
2017-12-05T17:51:50.742Z,22.83
2017-12-05T17:54:18.304Z,18.63
2017-12-05T17:56:46.016Z,19.23
2017-12-05T17:59:13.524Z,18.60
2017-12-05T18:01:41.179Z,20.30
2017-12-05T18:04:08.639Z,16.90
2017-12-05T18:06:36.172Z,21.07
2017-12-05T18:09:04.044Z,18.67
2017-12-05T18:11:31.563Z,17.20
2017-12-05T18:13:59.016Z,15.03
2017-12-05T18:16:26.503Z,16.90
2017-12-05T18:18:53.974Z,16.70
2017-12-05T18:21:21.916Z,21.53
2017-12-05T18:23:49.433Z,23.70
2017-12-05T18:26:16.912Z,20.90
2017-12-05T18:28:44.344Z,15.63
2017-12-05T18:31:12.201Z,15.97
2017-12-05T18:33:40.067Z,23.57
2017-12-05T18:36:07.987Z,16.73
2017-12-05T18:38:35.576Z,19.87
2017-12-05T18:41:03.050Z,20.87
2017-12-05T18:43:30.582Z,20.53
2017-12-05T18:45:58.610Z,20.50
2017-12-05T18:48:26.584Z,21.03
2017-12-05T18:50:54.451Z,17.93
2017-12-05T18:53:22.298Z,23.00
2017-12-05T18:55:49.778Z,21.07
2017-12-05T18:58:17.622Z,21.43
2017-12-05T19:00:45.108Z,17.80
2017-12-05T19:03:13.009Z,16.50
2017-12-05T19:05:40.938Z,18.73
2017-12-05T19:08:08.497Z,18.53
2017-12-05T19:10:35.962Z,21.30
2017-12-05T19:13:03.404Z,17.60
2017-12-05T19:15:30.855Z,16.23
2017-12-05T19:17:58.343Z,20.80
2017-12-05T19:20:25.778Z,26.63
2017-12-05T19:22:53.189Z,16.93
2017-12-05T19:25:20.656Z,18.53
2017-12-05T19:27:48.492Z,19.07
2017-12-05T19:30:15.964Z,19.70
2017-12-05T19:32:43.846Z,20.80
2017-12-05T19:35:11.310Z,21.03
2017-12-05T19:37:38.794Z,21.60
2017-12-05T19:40:06.671Z,20.33
2017-12-05T19:42:34.195Z,21.23
2017-12-05T19:45:01.841Z,19.67
2017-12-05T19:47:29.301Z,24.77
2017-12-05T19:49:56.754Z,19.67
2017-12-05T19:52:24.234Z,16.60
2017-12-05T19:54:51.684Z,20.97
2017-12-05T19:57:19.134Z,21.17
2017-12-05T19:59:46.591Z,21.47
2017-12-05T20:02:14.109Z,21.73
2017-12-05T20:04:41.562Z,20.10
2017-12-05T20:07:09.059Z,22.27
2017-12-05T20:09:36.972Z,21.20
2017-12-05T20:12:04.411Z,23.00
2017-12-05T20:14:31.978Z,21.20
2017-12-05T20:16:59.632Z,23.40
2017-12-05T20:19:27.121Z,17.43
2017-12-05T20:21:54.626Z,24.20
2017-12-05T20:24:22.508Z,20.90
2017-12-05T20:26:50.350Z,22.43
2017-12-05T20:29:17.831Z,21.63
2017-12-05T20:31:45.654Z,22.30
2017-12-05T20:34:13.108Z,21.27
2017-12-05T20:36:40.596Z,22.40
2017-12-05T20:39:08.054Z,20.37
2017-12-05T20:41:35.552Z,29.47
2017-12-05T20:44:03.661Z,22.13
2017-12-05T20:46:31.176Z,24.90
2017-12-05T20:48:58.626Z,21.30
2017-12-05T20:51:26.099Z,20.60
2017-12-05T20:53:53.548Z,23.10
2017-12-05T20:56:21.022Z,22.97
2017-12-05T20:58:48.538Z,22.00
2017-12-05T21:01:16.066Z,21.00
2017-12-05T21:03:43.912Z,22.20
2017-12-05T21:06:11.419Z,19.83
2017-12-05T21:08:38.996Z,20.97
2017-12-05T21:11:06.507Z,26.17
2017-12-05T21:13:33.993Z,23.83
2017-12-05T21:16:01.415Z,25.03
2017-12-05T21:18:28.873Z,22.83
2017-12-05T21:20:56.340Z,25.83
2017-12-05T21:23:23.820Z,22.40
2017-12-05T21:25:51.268Z,19.77
2017-12-05T21:28:18.685Z,22.90
2017-12-05T21:30:46.175Z,22.37
2017-12-05T21:33:13.619Z,23.10
2017-12-05T21:35:41.094Z,22.13
2017-12-05T21:38:08.537Z,21.80
2017-12-05T21:40:36.021Z,20.93
2017-12-05T21:43:03.494Z,26.93
2017-12-05T21:45:30.937Z,24.87
2017-12-05T21:47:59.255Z,26.63
2017-12-05T21:50:27.135Z,20.63
2017-12-05T21:52:54.577Z,26.07
2017-12-05T21:55:22.126Z,24.87
2017-12-05T21:57:49.785Z,23.77
2017-12-05T22:00:17.237Z,23.37
2017-12-05T22:02:44.672Z,24.83
2017-12-05T22:05:12.134Z,21.50
2017-12-05T22:07:39.575Z,20.53
2017-12-05T22:10:07.491Z,28.77
2017-12-05T22:12:34.969Z,22.53
2017-12-05T22:15:02.425Z,22.97
2017-12-05T22:17:29.907Z,20.53
2017-12-05T22:19:57.370Z,27.17
2017-12-05T22:22:24.917Z,24.07
2017-12-05T22:24:52.603Z,23.07
2017-12-05T22:27:20.050Z,25.10
2017-12-05T22:29:47.504Z,26.57
2017-12-05T22:32:14.980Z,24.70
2017-12-05T22:34:42.631Z,26.57
2017-12-05T22:37:10.079Z,22.67
2017-12-05T22:39:37.980Z,25.27
2017-12-05T22:42:05.420Z,24.17
2017-12-05T22:44:32.892Z,29.47
2017-12-05T22:47:00.378Z,25.43
2017-12-05T22:49:27.814Z,23.37
2017-12-05T22:51:55.272Z,22.30
2017-12-05T22:54:22.741Z,25.40
2017-12-05T22:56:50.203Z,26.20
2017-12-05T22:59:17.707Z,27.97
2017-12-05T23:01:45.579Z,27.90
2017-12-05T23:04:13.424Z,25.20
2017-12-05T23:06:41.388Z,20.13
2017-12-05T23:09:08.839Z,27.20
2017-12-05T23:11:36.277Z,24.70
2017-12-05T23:14:03.739Z,21.00
2017-12-05T23:16:31.204Z,22.20
2017-12-05T23:18:58.770Z,21.83
2017-12-05T23:21:26.248Z,26.50
2017-12-05T23:23:53.752Z,20.83
2017-12-05T23:26:21.596Z,20.37
2017-12-05T23:28:49.232Z,22.40
2017-12-05T23:31:16.707Z,22.40
2017-12-05T23:33:44.378Z,35.10
2017-12-05T23:36:11.960Z,22.27
2017-12-05T23:38:39.394Z,20.47
2017-12-05T23:41:06.859Z,16.70
2017-12-05T23:43:34.363Z,20.77
2017-12-05T23:46:01.847Z,18.90
2017-12-05T23:48:29.765Z,23.33
2017-12-05T23:50:57.292Z,19.37
2017-12-05T23:53:25.117Z,21.60
2017-12-05T23:55:52.545Z,23.60
2017-12-05T23:58:20.004Z,18.03
